Time;durP1;ratioP1;P1;durP2;ratioP2;P2;SDS_P1;SDS_P2;PMS_P1;PMS_P2;Temp;Humidity;BMP_temperature;BMP_pressure;BME280_temperature;BME280_humidity;BME280_pressure;Samples;Min_cycle;Max_cycle;Signal;HPM_P1;HPM_P2
2023/08/07 00:00:23;;;;;;;4.20;3.70;;;;;;;19.65;100.00;97521.97;109126;1255;71404;-70
2023/08/07 00:02:51;;;;;;;4.30;3.90;;;;;;;19.56;100.00;97511.26;109156;1256;61794;-70
2023/08/07 00:05:21;;;;;;;5.80;5.20;;;;;;;19.57;100.00;97530.73;109128;1257;58707;-70
2023/08/07 00:07:48;;;;;;;5.80;5.20;;;;;;;19.64;100.00;97547.76;109122;1257;72647;-70
2023/08/07 00:10:16;;;;;;;4.60;4.20;;;;;;;19.75;100.00;97537.47;109101;1257;66813;-70
2023/08/07 00:12:44;;;;;;;4.30;3.90;;;;;;;19.83;100.00;97512.67;109109;1257;72685;-70
2023/08/07 00:15:11;;;;;;;4.70;3.90;;;;;;;19.87;100.00;97488.69;109093;1256;60486;-70
2023/08/07 00:17:39;;;;;;;6.20;4.10;;;;;;;19.88;100.00;97475.09;109131;1256;60038;-70
2023/08/07 00:20:07;;;;;;;3.90;3.60;;;;;;;19.87;100.00;97476.29;109129;1257;73898;-69
2023/08/07 00:22:35;;;;;;;4.80;4.30;;;;;;;19.85;100.00;97472.99;109137;1257;66813;-69
2023/08/07 00:25:02;;;;;;;4.30;3.80;;;;;;;19.87;100.00;97475.75;109119;1257;71755;-69
2023/08/07 00:27:30;;;;;;;4.30;3.90;;;;;;;19.91;100.00;97478.58;109100;1256;62330;-69
2023/08/07 00:29:58;;;;;;;6.60;4.30;;;;;;;19.94;100.00;97464.70;109133;1256;58739;-68
2023/08/07 00:32:26;;;;;;;4.60;4.20;;;;;;;19.93;100.00;97452.95;109119;1255;74415;-67
2023/08/07 00:34:53;;;;;;;4.70;4.30;;;;;;;19.90;100.00;97458.15;109021;1256;67808;-68
2023/08/07 00:37:21;;;;;;;5.00;4.60;;;;;;;19.88;100.00;97451.08;109080;1256;72774;-69
2023/08/07 00:39:49;;;;;;;4.90;4.40;;;;;;;19.87;100.00;97452.53;109041;1257;60384;-68
2023/08/07 00:42:16;;;;;;;4.80;4.40;;;;;;;19.86;100.00;97456.10;108976;1257;59787;-68
2023/08/07 00:44:43;;;;;;;5.40;4.70;;;;;;;19.80;100.00;97467.41;109129;1256;72832;-68
2023/08/07 00:47:11;;;;;;;4.40;3.90;;;;;;;19.72;100.00;97486.34;109112;1257;69857;-68
2023/08/07 00:49:39;;;;;;;5.70;4.50;;;;;;;19.68;100.00;97469.94;109097;1257;71356;-68
2023/08/07 00:52:07;;;;;;;4.90;4.50;;;;;;;19.71;100.00;97515.52;109147;1256;60386;-70
2023/08/07 00:54:34;;;;;;;7.50;4.70;;;;;;;19.72;100.00;97568.13;109002;1256;60044;-68
2023/08/07 00:57:12;;;;;;;5.20;4.60;;;;;;;19.71;100.00;97587.61;109195;1256;76194;-69
2023/08/07 00:59:39;;;;;;;4.90;4.50;;;;;;;19.70;100.00;97572.82;109037;1257;68096;-69
2023/08/07 01:02:07;;;;;;;5.90;5.00;;;;;;;19.68;100.00;97521.36;109076;1256;71484;-69
2023/08/07 01:04:35;;;;;;;7.30;4.70;;;;;;;19.66;100.00;97501.95;109080;1256;60415;-70
2023/08/07 01:07:02;;;;;;;5.10;4.70;;;;;;;19.67;100.00;97481.83;109074;1256;60257;-69
2023/08/07 01:09:30;;;;;;;6.30;4.70;;;;;;;19.66;100.00;97515.33;109126;1256;73935;-69
2023/08/07 01:12:21;;;;;;;6.30;5.60;;;;;;;19.64;100.00;97536.54;109138;1255;67877;-69
2023/08/07 01:15:14;;;;;;;5.70;5.10;;;;;;;19.58;100.00;97539.73;109100;1256;72767;-69
2023/08/07 01:17:42;;;;;;;6.50;5.80;;;;;;;19.55;100.00;97520.77;109032;1255;60875;-69
2023/08/07 01:20:09;;;;;;;6.40;5.60;;;;;;;19.55;100.00;97505.00;109037;1255;60770;-69
2023/08/07 01:22:37;;;;;;;5.90;4.90;;;;;;;19.57;100.00;97508.84;109074;1256;72716;-69
2023/08/07 01:25:05;;;;;;;7.40;5.40;;;;;;;19.54;100.00;97520.71;109072;1256;66574;-69
2023/08/07 01:28:05;;;;;;;7.70;5.10;;;;;;;19.47;100.00;97519.44;109132;1256;72897;-69
2023/08/07 01:30:40;;;;;;;8.90;5.20;;;;;;;19.38;100.00;97518.26;109010;1255;61672;-70
2023/08/07 01:33:27;;;;;;;5.60;5.00;;;;;;;19.34;100.00;97525.38;109071;1256;58772;-69
2023/08/07 01:35:55;;;;;;;;;;;;;;;19.34;100.00;97528.60;109065;1257;75862;-69
2023/08/07 01:38:24;;;;;;;5.20;4.70;;;;;;;19.30;100.00;97521.77;109028;1256;66835;-70
2023/08/07 01:40:51;;;;;;;6.20;5.20;;;;;;;19.24;100.00;97513.85;109081;1256;71472;-69
2023/08/07 01:43:19;;;;;;;8.50;5.70;;;;;;;19.25;100.00;97512.34;109062;1256;60845;-70
2023/08/07 01:45:46;;;;;;;6.20;5.70;;;;;;;19.31;100.00;97510.94;109117;1256;60495;-69
2023/08/07 01:48:14;;;;;;;5.80;5.30;;;;;;;19.36;100.00;97511.73;109175;1256;72674;-69
2023/08/07 01:50:42;;;;;;;6.00;5.40;;;;;;;19.45;100.00;97510.34;109122;1256;67791;-70
2023/08/07 01:53:09;;;;;;;6.40;5.70;;;;;;;19.57;100.00;97510.61;109064;1256;72645;-69
2023/08/07 01:55:38;;;;;;;6.40;5.20;;;;;;;19.67;100.00;97508.53;109105;1256;63761;-70
2023/08/07 01:58:06;;;;;;;5.90;5.30;;;;;;;19.71;100.00;97516.27;109121;1255;60133;-69
2023/08/07 02:00:33;;;;;;;6.30;5.70;;;;;;;19.75;100.00;97524.73;109104;1256;72684;-69
2023/08/07 02:03:00;;;;;;;6.30;5.70;;;;;;;19.74;100.00;97543.52;109142;1255;69788;-69
2023/08/07 02:05:29;;;;;;;6.40;5.60;;;;;;;19.71;100.00;97559.01;109147;1256;72822;-68
2023/08/07 02:07:56;;;;;;;6.80;5.20;;;;;;;19.67;100.00;97562.33;109094;1256;61562;-69
2023/08/07 02:10:25;;;;;;;5.80;5.30;;;;;;;19.62;100.00;97559.59;109116;1256;60043;-69
2023/08/07 02:12:52;;;;;;;5.70;5.10;;;;;;;19.58;100.00;97544.10;109137;1256;72977;-69
2023/08/07 02:15:20;;;;;;;7.50;6.50;;;;;;;19.57;100.00;97538.82;109118;1256;67666;-69
2023/08/07 02:17:50;;;;;;;8.70;6.30;;;;;;;19.62;100.00;97523.23;109046;1256;72809;-68
2023/08/07 02:20:18;;;;;;;6.40;5.70;;;;;;;19.69;100.00;97510.95;109079;1256;61243;-68
2023/08/07 02:22:46;;;;;;;7.50;6.50;;;;;;;19.74;100.00;97494.30;109183;1256;59676;-68
2023/08/07 02:25:13;;;;;;;6.60;6.00;;;;;;;19.75;100.00;97482.11;109048;1256;76186;-69
2023/08/07 02:27:41;;;;;;;9.10;6.70;;;;;;;19.76;100.00;97481.20;109140;1256;67946;-69
2023/08/07 02:30:09;;;;;;;10.20;6.70;;;;;;;19.80;100.00;97491.27;109052;1257;74289;-70
2023/08/07 02:32:37;;;;;;;7.00;6.30;;;;;;;19.86;100.00;97495.56;109090;1257;62890;-68
2023/08/07 02:35:04;;;;;;;6.10;5.00;;;;;;;19.89;100.00;97504.61;109063;1256;62442;-69
2023/08/07 02:37:32;;;;;;;5.90;5.00;;;;;;;19.92;100.00;97500.80;109159;1256;73395;-69
2023/08/07 02:40:00;;;;;;;4.90;4.40;;;;;;;19.95;100.00;97489.02;108988;1255;186895;-70
2023/08/07 02:42:27;;;;;;;3.80;3.50;;;;;;;19.96;100.00;97477.16;109040;1256;71618;-70
2023/08/07 02:44:55;;;;;;;3.20;2.90;;;;;;;19.93;100.00;97474.90;109061;1256;64435;-70
2023/08/07 02:47:22;;;;;;;3.90;3.40;;;;;;;19.92;100.00;97464.06;109125;1257;60272;-70
2023/08/07 02:49:50;;;;;;;3.70;3.30;;;;;;;19.91;100.00;97455.27;109126;1256;75983;-69
2023/08/07 02:52:18;;;;;;;4.00;3.70;;;;;;;19.90;100.00;97474.54;109107;1256;66409;-69
2023/08/07 02:54:45;;;;;;;4.20;3.90;;;;;;;19.88;100.00;97492.09;109039;1255;70808;-69
2023/08/07 02:57:13;;;;;;;5.40;4.00;;;;;;;19.83;100.00;97506.25;109178;1256;60573;-70
2023/08/07 02:59:40;;;;;;;3.70;3.30;;;;;;;19.81;100.00;97513.50;109115;1256;60099;-69
2023/08/07 03:02:08;;;;;;;3.90;3.10;;;;;;;19.82;100.00;97509.70;109081;1256;73894;-69
2023/08/07 03:04:35;;;;;;;2.80;2.60;;;;;;;19.83;100.00;97511.38;109144;1256;67736;-69
2023/08/07 03:07:03;;;;;;;2.90;2.60;;;;;;;19.85;100.00;97514.88;109044;1256;71094;-69
2023/08/07 03:09:31;;;;;;;2.60;2.30;;;;;;;19.85;100.00;97529.28;109174;1255;63815;-69
2023/08/07 03:12:03;;;;;;;3.40;2.10;;;;;;;19.84;100.00;97548.17;109126;1257;62624;-70
2023/08/07 03:14:31;;;;;;;2.70;2.40;;;;;;;19.80;100.00;97568.59;109081;1256;76214;-68
2023/08/07 03:16:59;;;;;;;3.30;1.80;;;;;;;19.75;100.00;97563.70;109094;1255;67886;-70
2023/08/07 03:19:26;;;;;;;2.60;1.70;;;;;;;19.69;100.00;97557.98;109108;1256;70887;-70
2023/08/07 03:21:54;;;;;;;1.70;1.30;;;;;;;19.63;100.00;97546.09;109042;1257;60419;-69
2023/08/07 03:24:21;;;;;;;1.50;0.90;;;;;;;19.52;100.00;97512.52;109093;1256;58842;-70
2023/08/07 03:26:49;;;;;;;0.90;0.80;;;;;;;19.40;100.00;97496.36;109062;1255;73804;-69
2023/08/07 03:29:16;;;;;;;1.30;0.70;;;;;;;19.28;100.00;97503.27;109134;1256;66431;-70
2023/08/07 03:31:44;;;;;;;1.20;0.40;;;;;;;19.16;100.00;97516.45;109077;1256;71395;-70
2023/08/07 03:34:11;;;;;;;1.30;0.40;;;;;;;19.01;100.00;97524.77;109144;1256;60276;-69
2023/08/07 03:36:39;;;;;;;3.20;0.50;;;;;;;18.86;100.00;97528.39;109146;1255;58798;-70
2023/08/07 03:39:07;;;;;;;0.50;0.50;;;;;;;18.75;100.00;97530.06;108980;1256;74317;-70
2023/08/07 03:41:34;;;;;;;0.80;0.40;;;;;;;18.64;100.00;97534.52;109118;1256;69720;-69
2023/08/07 03:44:02;;;;;;;0.60;0.40;;;;;;;18.54;100.00;97541.14;109063;1256;71892;-70
2023/08/07 03:46:29;;;;;;;0.50;0.40;;;;;;;18.40;100.00;97537.59;109125;1256;61612;-70
2023/08/07 03:48:57;;;;;;;0.80;0.50;;;;;;;18.30;100.00;97537.77;109170;1255;59042;-69
2023/08/07 03:51:25;;;;;;;1.30;0.60;;;;;;;18.25;100.00;97530.92;109054;1255;73777;-69
2023/08/07 03:53:53;;;;;;;0.50;0.50;;;;;;;18.23;100.00;97522.80;109089;1256;67877;-70
2023/08/07 03:56:20;;;;;;;1.10;0.40;;;;;;;18.22;100.00;97515.37;109046;1256;72670;-69
2023/08/07 03:58:50;;;;;;;0.40;0.40;;;;;;;18.19;100.00;97522.63;109016;1256;61695;-71
2023/08/07 04:01:19;;;;;;;0.40;0.40;;;;;;;18.17;100.00;97525.63;109087;1256;60119;-70
2023/08/07 04:03:47;;;;;;;1.40;0.50;;;;;;;18.14;100.00;97511.80;109064;1256;73869;-69
2023/08/07 04:06:15;;;;;;;0.50;0.50;;;;;;;18.11;100.00;97473.80;109074;1255;67551;-69
2023/08/07 04:08:46;;;;;;;1.40;0.60;;;;;;;18.07;100.00;97457.59;109104;1256;73119;-69
2023/08/07 04:11:14;;;;;;;1.30;0.40;;;;;;;18.00;100.00;97468.66;109084;1256;60690;-69
2023/08/07 04:13:41;;;;;;;1.50;0.80;;;;;;;17.95;100.00;97484.79;109098;1256;58581;-69
2023/08/07 04:16:08;;;;;;;1.40;0.70;;;;;;;17.90;100.00;97514.41;109099;1257;73952;-69
2023/08/07 04:18:36;;;;;;;2.10;0.80;;;;;;;17.88;100.00;97521.83;109126;1255;67660;-69
2023/08/07 04:21:03;;;;;;;0.70;0.70;;;;;;;17.84;100.00;97519.73;109123;1256;72684;-70
2023/08/07 04:23:31;;;;;;;1.90;0.60;;;;;;;17.81;100.00;97515.35;109036;1256;60405;-69
2023/08/07 04:25:59;;;;;;;1.40;0.60;;;;;;;17.78;100.00;97505.28;109071;1256;59318;-70
2023/08/07 04:28:29;;;;;;;0.60;0.50;;;;;;;17.76;100.00;97506.34;109193;1255;72593;-69
2023/08/07 04:30:57;;;;;;;0.50;0.50;;;;;;;17.76;100.00;97504.89;109108;1255;66646;-70
2023/08/07 04:33:24;;;;;;;0.50;0.50;;;;;;;17.78;100.00;97509.10;109100;1256;71222;-70
2023/08/07 04:35:52;;;;;;;1.00;0.60;;;;;;;17.81;100.00;97508.31;109128;1257;60414;-70
2023/08/07 04:38:19;;;;;;;1.40;0.60;;;;;;;17.82;100.00;97505.52;109120;1255;60567;-70
2023/08/07 04:40:47;;;;;;;0.40;0.40;;;;;;;17.82;100.00;97511.05;109131;1256;73963;-71
2023/08/07 04:43:15;;;;;;;1.20;0.80;;;;;;;17.80;100.00;97516.64;109125;1257;67823;-69
2023/08/07 04:45:44;;;;;;;0.50;0.50;;;;;;;17.77;100.00;97523.90;109122;1256;72964;-68
2023/08/07 04:48:13;;;;;;;0.40;0.40;;;;;;;17.73;100.00;97527.27;109096;1256;60438;-70
2023/08/07 04:50:40;;;;;;;2.20;0.70;;;;;;;17.68;100.00;97523.90;109129;1255;60041;-70
2023/08/07 04:53:08;;;;;;;2.00;0.60;;;;;;;17.65;100.00;97518.31;109093;1256;73849;-69
2023/08/07 04:55:35;;;;;;;2.20;0.80;;;;;;;17.64;100.00;97516.85;109150;1256;67694;-70
2023/08/07 04:58:03;;;;;;;1.40;0.90;;;;;;;17.63;100.00;97516.23;109082;1255;72718;-70
2023/08/07 05:00:30;;;;;;;2.40;1.00;;;;;;;17.61;100.00;97514.14;109122;1256;61871;-69
2023/08/07 05:02:58;;;;;;;1.20;0.90;;;;;;;17.60;100.00;97517.58;109087;1256;58833;-69
2023/08/07 05:05:25;;;;;;;3.10;0.80;;;;;;;17.60;100.00;97519.30;109182;1255;72371;-70
2023/08/07 05:07:54;;;;;;;0.90;0.90;;;;;;;17.59;100.00;97519.35;109116;1255;66297;-69
2023/08/07 05:10:22;;;;;;;1.70;0.90;;;;;;;17.59;100.00;97524.14;109104;1256;71422;-70
2023/08/07 05:12:55;;;;;;;1.00;1.00;;;;;;;17.61;100.00;97531.94;109127;1256;61848;-70
2023/08/07 05:15:22;;;;;;;1.90;1.00;;;;;;;17.63;100.00;97542.16;109129;1255;59542;-70
2023/08/07 05:17:50;;;;;;;1.20;1.10;;;;;;;17.63;100.00;97548.30;109116;1256;76007;-68
2023/08/07 05:20:18;;;;;;;2.60;1.40;;;;;;;17.62;100.00;97552.60;109134;1255;66447;-69
2023/08/07 05:22:45;;;;;;;1.30;0.90;;;;;;;17.60;100.00;97556.77;109137;1255;71817;-69
2023/08/07 05:25:15;;;;;;;3.30;1.10;;;;;;;17.58;100.00;97562.63;109133;1256;61746;-69
2023/08/07 05:27:43;;;;;;;1.40;1.30;;;;;;;17.58;100.00;97564.77;109023;1256;60045;-70
2023/08/07 05:30:11;;;;;;;1.40;1.30;;;;;;;17.56;100.00;97568.26;109113;1256;73852;-69
2023/08/07 05:32:39;;;;;;;1.90;1.50;;;;;;;17.55;100.00;97576.32;109107;1255;67905;-69
2023/08/07 05:35:07;;;;;;;1.90;1.80;;;;;;;17.55;100.00;97579.77;109036;1256;72696;-70
2023/08/07 05:37:34;;;;;;;2.50;1.90;;;;;;;17.55;100.00;97580.94;109159;1256;62248;-69
2023/08/07 05:40:02;;;;;;;2.70;1.50;;;;;;;17.52;100.00;97576.63;109070;1256;60504;-69
2023/08/07 05:42:29;;;;;;;1.70;1.60;;;;;;;17.51;100.00;97572.39;109136;1256;71886;-69
2023/08/07 05:44:58;;;;;;;2.30;1.90;;;;;;;17.53;100.00;97563.52;109086;1255;66644;-69
2023/08/07 05:47:25;;;;;;;2.50;1.30;;;;;;;17.56;100.00;97561.11;109138;1255;71378;-69
2023/08/07 05:49:53;;;;;;;4.10;1.20;;;;;;;17.58;100.00;97559.56;109105;1255;61683;-69
2023/08/07 05:52:20;;;;;;;1.20;1.10;;;;;;;17.63;100.00;97550.34;109157;1255;60058;-70
2023/08/07 05:54:48;;;;;;;1.40;1.00;;;;;;;17.69;100.00;97541.55;109112;1256;72989;-69
2023/08/07 05:57:15;;;;;;;3.30;1.10;;;;;;;17.75;100.00;97542.66;109171;1255;67694;-69
2023/08/07 05:59:43;;;;;;;0.80;0.70;;;;;;;17.80;100.00;97542.30;109124;1256;72073;-69
2023/08/07 06:02:13;;;;;;;1.30;0.80;;;;;;;17.86;100.00;97543.66;109085;1256;61655;-70
2023/08/07 06:04:40;;;;;;;1.00;0.80;;;;;;;17.90;100.00;97547.77;109042;1256;59383;-70
2023/08/07 06:07:08;;;;;;;0.90;0.80;;;;;;;17.91;100.00;97539.34;109110;1256;74438;-70
2023/08/07 06:09:35;;;;;;;1.30;0.70;;;;;;;17.90;100.00;97535.61;109119;1256;67938;-69
2023/08/07 06:12:03;;;;;;;1.00;1.00;;;;;;;17.92;100.00;97540.25;109131;1255;72443;-68
2023/08/07 06:14:31;;;;;;;2.00;1.00;;;;;;;17.94;100.00;97541.98;109062;1256;61767;-69
2023/08/07 06:17:00;;;;;;;1.50;1.10;;;;;;;17.92;100.00;97544.55;109138;1255;60390;-69
2023/08/07 06:19:28;;;;;;;2.20;0.90;;;;;;;17.92;100.00;97548.91;109104;1256;76251;-69
2023/08/07 06:21:59;;;;;;;1.70;1.20;;;;;;;17.89;100.00;97556.75;109158;1256;67902;-70
2023/08/07 06:24:28;;;;;;;1.10;0.80;;;;;;;17.85;100.00;97567.86;109160;1255;71529;-70
2023/08/07 06:26:55;;;;;;;0.70;0.70;;;;;;;17.79;100.00;97573.72;109108;1256;61666;-71
2023/08/07 06:29:23;;;;;;;1.80;1.10;;;;;;;17.76;100.00;97578.15;109130;1256;60717;-70
2023/08/07 06:31:50;;;;;;;1.80;0.80;;;;;;;17.74;100.00;97577.45;109125;1256;72707;-69
2023/08/07 06:34:18;;;;;;;1.80;0.60;;;;;;;17.73;100.00;97574.37;109119;1256;66215;-69
2023/08/07 06:36:46;;;;;;;3.00;1.30;;;;;;;17.76;100.00;97579.66;109118;1256;73672;-69
2023/08/07 06:39:13;;;;;;;1.10;1.10;;;;;;;17.78;100.00;97589.45;109061;1256;60457;-69
2023/08/07 06:41:41;;;;;;;1.70;1.20;;;;;;;17.77;100.00;97597.73;109127;1255;58811;-70
2023/08/07 06:44:08;;;;;;;1.70;0.90;;;;;;;17.74;100.00;97603.86;109042;1256;73833;-69
2023/08/07 06:46:36;;;;;;;3.00;0.80;;;;;;;17.70;100.00;97608.02;109140;1256;67620;-68
2023/08/07 06:49:03;;;;;;;2.50;0.80;;;;;;;17.71;100.00;97609.91;109164;1255;72692;-70
2023/08/07 06:51:30;;;;;;;0.50;0.50;;;;;;;17.73;100.00;97618.73;109121;1256;59642;-70
2023/08/07 06:53:58;;;;;;;0.50;0.50;;;;;;;17.74;100.00;97616.34;109121;1256;60010;-70
2023/08/07 06:56:25;;;;;;;0.70;0.50;;;;;;;17.74;100.00;97616.81;109107;1256;73885;-70
2023/08/07 06:58:53;;;;;;;3.40;0.60;;;;;;;17.73;100.00;97613.20;109141;1255;67944;-69
2023/08/07 07:01:21;;;;;;;1.50;0.60;;;;;;;17.78;100.00;97614.16;109158;1255;73346;-70
2023/08/07 07:03:52;;;;;;;1.40;0.80;;;;;;;17.85;100.00;97609.95;109099;1256;61880;-69
2023/08/07 07:06:20;;;;;;;0.50;0.50;;;;;;;17.92;100.00;97611.38;109167;1255;58961;-70
2023/08/07 07:08:48;;;;;;;2.10;0.70;;;;;;;17.97;100.00;97613.39;109175;1258;73874;-69
2023/08/07 07:11:15;;;;;;;1.70;0.50;;;;;;;18.04;100.00;97613.58;109116;1256;66948;-69
2023/08/07 07:13:43;;;;;;;0.40;0.40;;;;;;;18.10;100.00;97618.18;109128;1255;72693;-70
2023/08/07 07:16:11;;;;;;;2.70;0.50;;;;;;;18.16;100.00;97624.39;109068;1255;60382;-70
2023/08/07 07:18:39;;;;;;;0.60;0.60;;;;;;;18.22;100.00;97624.95;109128;1255;59451;-72
2023/08/07 07:21:07;;;;;;;1.20;0.50;;;;;;;18.25;100.00;97623.63;109144;1256;73834;-70
2023/08/07 07:23:34;;;;;;;1.30;0.80;;;;;;;18.23;100.00;97622.64;109091;1256;68134;-70
2023/08/07 07:26:01;;;;;;;1.00;0.90;;;;;;;18.25;100.00;97626.27;109104;1256;72748;-70
2023/08/07 07:28:29;;;;;;;2.20;0.70;;;;;;;18.30;100.00;97630.58;109182;1256;61235;-71
2023/08/07 07:30:56;;;;;;;1.60;0.80;;;;;;;18.29;100.00;97630.86;109163;1256;60030;-70
2023/08/07 07:33:24;;;;;;;2.00;0.80;;;;;;;18.28;100.00;97632.95;109117;1255;72558;-70
2023/08/07 07:35:51;;;;;;;0.70;0.60;;;;;;;18.29;100.00;97635.98;109184;1255;66502;-70
2023/08/07 07:38:18;;;;;;;1.20;0.70;;;;;;;18.26;100.00;97646.55;109140;1254;72646;-70
2023/08/07 07:40:46;;;;;;;4.20;3.80;;;;;;;18.26;100.00;97650.05;109140;1256;62240;-70
2023/08/07 07:43:13;;;;;;;6.00;5.50;;;;;;;18.28;100.00;97655.83;109117;1256;59117;-70
2023/08/07 07:45:41;;;;;;;9.60;8.70;;;;;;;18.34;100.00;97658.82;109173;1254;73234;-69
2023/08/07 07:48:08;;;;;;;7.20;6.60;;;;;;;18.40;100.00;97661.09;109144;1256;67598;-71
2023/08/07 07:50:35;;;;;;;7.90;7.20;;;;;;;18.44;100.00;97665.58;109100;1256;72809;-70
2023/08/07 07:53:03;;;;;;;4.10;3.80;;;;;;;18.45;100.00;97669.90;109147;1255;61723;-70
2023/08/07 07:55:30;;;;;;;7.90;6.80;;;;;;;18.43;100.00;97672.47;109125;1255;60030;-70
2023/08/07 07:57:58;;;;;;;2.40;2.20;;;;;;;18.38;100.00;97673.58;109089;1256;74342;-70
2023/08/07 08:00:26;;;;;;;8.50;6.00;;;;;;;18.34;100.00;97676.36;109127;1256;66410;-69
2023/08/07 08:02:54;;;;;;;2.00;1.90;;;;;;;18.33;100.00;97673.48;109101;1255;72674;-70
2023/08/07 08:05:21;;;;;;;3.60;1.90;;;;;;;18.25;100.00;97667.39;109145;1256;60757;-70
2023/08/07 08:07:49;;;;;;;3.10;2.80;;;;;;;18.14;100.00;97675.79;109122;1255;60122;-69
2023/08/07 08:10:16;;;;;;;4.40;2.00;;;;;;;18.06;100.00;97675.10;109183;1256;72861;-70
2023/08/07 08:12:44;;;;;;;1.50;1.10;;;;;;;17.99;100.00;97681.09;109095;1256;67328;-70
2023/08/07 08:15:11;;;;;;;3.90;1.30;;;;;;;17.89;100.00;97685.65;109112;1256;71879;-69
2023/08/07 08:17:39;;;;;;;2.50;1.30;;;;;;;17.86;100.00;97682.67;109179;1256;61743;-70
2023/08/07 08:20:07;;;;;;;2.60;1.30;;;;;;;17.93;100.00;97683.46;109153;1255;60047;-72
2023/08/07 08:22:35;;;;;;;2.20;1.70;;;;;;;18.06;100.00;97684.23;109142;1255;73816;-72
2023/08/07 08:25:04;;;;;;;2.40;2.10;;;;;;;18.15;100.00;97678.75;109201;1256;68031;-70
2023/08/07 08:27:32;;;;;;;3.50;2.10;;;;;;;18.13;100.00;97682.45;109196;1256;71590;-70
2023/08/07 08:29:59;;;;;;;2.10;1.60;;;;;;;18.09;100.00;97686.20;109071;1256;60088;-71
2023/08/07 08:32:26;;;;;;;2.50;1.60;;;;;;;18.10;100.00;97694.54;109172;1255;58691;-70
2023/08/07 08:34:54;;;;;;;2.30;1.90;;;;;;;18.10;100.00;97708.48;109115;1256;72640;-71
2023/08/07 08:37:21;;;;;;;1.90;1.80;;;;;;;18.10;100.00;97714.20;109131;1256;67687;-71
2023/08/07 08:39:49;;;;;;;1.60;1.50;;;;;;;18.08;100.00;97710.35;109124;1256;72943;-73
2023/08/07 08:42:17;;;;;;;5.10;1.00;;;;;;;18.05;100.00;97710.77;109071;1256;61697;-70
2023/08/07 08:44:51;;;;;;;1.10;1.00;;;;;;;18.00;100.00;97709.77;109122;1256;60196;-72
2023/08/07 08:47:19;;;;;;;4.70;1.30;;;;;;;17.93;100.00;97709.45;109033;1255;74156;-62
2023/08/07 08:49:47;;;;;;;7.70;3.60;;;;;;;17.90;100.00;97713.75;109072;1256;66342;-59
2023/08/07 08:52:15;;;;;;;4.10;3.30;;;;;;;17.92;100.00;97712.55;109087;1256;72635;-59
2023/08/07 08:54:43;;;;;;;2.40;1.70;;;;;;;17.92;100.00;97720.04;109039;1256;61657;-59
2023/08/07 08:57:11;;;;;;;1.60;1.30;;;;;;;17.94;100.00;97721.13;109166;1255;60018;-66
2023/08/07 08:59:40;;;;;;;1.70;1.50;;;;;;;17.89;100.00;97727.92;109118;1255;74368;-60
2023/08/07 09:02:08;;;;;;;1.30;1.20;;;;;;;17.83;100.00;97726.82;109143;1255;66329;-70
2023/08/07 09:04:36;;;;;;;2.30;1.00;;;;;;;17.84;100.00;97722.25;109106;1255;72725;-70
2023/08/07 09:07:03;;;;;;;0.90;0.80;;;;;;;17.91;100.00;97714.61;109153;1256;60495;-72
2023/08/07 09:09:31;;;;;;;2.60;1.10;;;;;;;18.00;100.00;97713.12;109030;1255;58815;-70
2023/08/07 09:11:58;;;;;;;1.90;1.10;;;;;;;18.08;100.00;97717.08;109055;1255;73962;-71
2023/08/07 09:14:26;;;;;;;0.70;0.70;;;;;;;18.14;100.00;97720.13;109164;1256;66742;-73
2023/08/07 09:16:54;;;;;;;0.90;0.60;;;;;;;18.21;100.00;97718.23;109142;1256;72627;-71
2023/08/07 09:19:22;;;;;;;1.10;0.70;;;;;;;18.26;100.00;97724.08;109114;1256;61717;-72
2023/08/07 09:21:49;;;;;;;2.40;0.70;;;;;;;18.26;100.00;97728.92;109060;1255;60017;-71
2023/08/07 09:24:18;;;;;;;1.10;0.80;;;;;;;18.20;100.00;97733.29;109127;1255;73840;-71
2023/08/07 09:26:48;;;;;;;2.00;1.10;;;;;;;18.13;100.00;97728.46;109145;1255;67620;-69
2023/08/07 09:29:16;;;;;;;0.70;0.60;;;;;;;18.01;100.00;97729.90;108994;1256;72765;-70
2023/08/07 09:31:46;;;;;;;0.80;0.60;;;;;;;17.98;100.00;97736.55;109122;1256;60599;-70
2023/08/07 09:34:16;;;;;;;1.10;0.60;;;;;;;17.95;100.00;97734.97;109141;1255;60052;-71
2023/08/07 09:36:44;;;;;;;1.00;0.90;;;;;;;17.97;100.00;97733.90;109140;1255;73989;-67
2023/08/07 09:39:11;;;;;;;1.00;0.60;;;;;;;18.03;100.00;97730.72;109161;1256;66367;-71
2023/08/07 09:41:38;;;;;;;1.30;0.80;;;;;;;18.13;100.00;97740.14;109146;1256;71430;-69
2023/08/07 09:44:08;;;;;;;1.40;0.90;;;;;;;18.28;100.00;97744.48;109148;1256;60424;-67
2023/08/07 09:46:43;;;;;;;0.80;0.50;;;;;;;18.49;100.00;97748.59;109137;1257;60059;-67
2023/08/07 09:49:10;;;;;;;2.00;0.60;;;;;;;18.75;100.00;97755.61;109100;1258;73948;-67
2023/08/07 09:51:45;;;;;;;0.70;0.70;;;;;;;18.98;100.00;97753.27;109192;1256;66735;-66
2023/08/07 09:54:12;;;;;;;2.60;0.50;;;;;;;19.24;100.00;97751.61;109046;1256;71416;-65
2023/08/07 09:56:39;;;;;;;1.90;0.60;;;;;;;19.41;100.00;97756.08;109087;1256;59834;-71
2023/08/07 09:59:07;;;;;;;1.20;0.40;;;;;;;19.56;100.00;97758.30;109184;1256;58767;-66
2023/08/07 10:01:39;;;;;;;1.60;0.60;;;;;;;19.68;100.00;97758.90;109171;1256;72650;-66
2023/08/07 10:04:07;;;;;;;1.00;0.70;;;;;;;19.74;100.00;97756.96;109128;1256;67617;-65
2023/08/07 10:06:35;;;;;;;1.20;0.60;;;;;;;19.78;100.00;97753.72;109149;1256;72652;-67
2023/08/07 10:09:02;;;;;;;0.70;0.50;;;;;;;19.78;100.00;97749.95;109133;1256;61709;-67
2023/08/07 10:11:30;;;;;;;1.20;0.70;;;;;;;19.68;100.00;97750.48;109003;1256;58708;-67
2023/08/07 10:13:57;;;;;;;1.40;0.80;;;;;;;19.55;100.00;97761.42;109159;1255;72809;-66
2023/08/07 10:16:26;;;;;;;1.00;0.50;;;;;;;19.42;100.00;97766.01;109207;1255;68580;-64
2023/08/07 10:18:54;;;;;;;2.10;0.70;;;;;;;19.32;100.00;97762.08;109144;1255;71460;-64
2023/08/07 10:21:22;;;;;;;1.30;0.60;;;;;;;19.27;100.00;97761.53;109190;1256;60814;-66
2023/08/07 10:23:51;;;;;;;0.60;0.60;;;;;;;19.30;100.00;97764.07;109074;1256;59184;-68
2023/08/07 10:26:19;;;;;;;1.00;0.90;;;;;;;19.38;100.00;97761.73;109090;1256;73865;-67
2023/08/07 10:28:46;;;;;;;0.60;0.60;;;;;;;19.50;100.00;97764.45;109097;1255;67772;-66
2023/08/07 10:31:14;;;;;;;2.10;0.80;;;;;;;19.78;100.00;97760.08;109059;1256;70640;-65
2023/08/07 10:33:41;;;;;;;1.70;0.70;;;;;;;20.16;100.00;97764.00;109033;1256;60129;-66
2023/08/07 10:36:10;;;;;;;1.50;0.90;;;;;;;20.43;100.00;97762.62;109102;1256;58207;-69
2023/08/07 10:38:37;;;;;;;1.80;0.70;;;;;;;20.53;100.00;97766.26;109125;1256;73921;-64
2023/08/07 10:41:09;;;;;;;2.10;1.10;;;;;;;20.50;100.00;97768.54;109187;1256;67611;-67
2023/08/07 10:43:40;;;;;;;2.40;1.40;;;;;;;20.38;100.00;97778.19;109153;1256;70826;-67
2023/08/07 10:46:10;;;;;;;0.80;0.80;;;;;;;20.25;100.00;97781.60;109198;1260;61699;-65
2023/08/07 10:48:42;;;;;;;0.80;0.70;;;;;;;20.18;100.00;97788.55;109145;1256;58743;-65
2023/08/07 10:51:16;;;;;;;0.80;0.80;;;;;;;20.18;100.00;97788.06;109185;1256;74032;-66
2023/08/07 10:53:45;;;;;;;2.00;1.00;;;;;;;20.24;100.00;97788.67;109163;1256;67056;-65
2023/08/07 10:56:33;;;;;;;2.40;1.20;;;;;;;20.26;100.00;97788.47;109163;1256;72879;-65
2023/08/07 10:59:11;;;;;;;3.10;1.10;;;;;;;20.16;100.00;97792.83;109115;1256;60184;-65
2023/08/07 11:01:38;;;;;;;6.00;1.00;;;;;;;20.06;100.00;97799.86;109082;1256;60003;-67
2023/08/07 11:04:10;;;;;;;1.00;0.80;;;;;;;19.85;100.00;97807.09;109148;1256;73894;-66
2023/08/07 11:06:38;;;;;;;1.40;1.00;;;;;;;19.61;100.00;97810.52;109147;1256;67003;-68
2023/08/07 11:09:06;;;;;;;1.60;1.10;;;;;;;19.46;100.00;97809.90;109159;1256;71401;-65
2023/08/07 11:11:45;;;;;;;2.10;1.10;;;;;;;19.42;100.00;97814.75;109091;1256;60084;-67
2023/08/07 11:14:13;;;;;;;1.10;0.90;;;;;;;19.39;100.00;97813.52;109178;1256;58755;-65
2023/08/07 11:16:41;;;;;;;0.60;0.60;;;;;;;19.35;100.00;97817.63;109161;1261;73860;-69
2023/08/07 11:19:08;;;;;;;1.80;0.90;;;;;;;19.23;100.00;97827.45;109147;1257;66652;-67
2023/08/07 11:21:37;;;;;;;1.30;0.80;;;;;;;19.09;100.00;97825.24;109171;1256;72673;-66